createdAt,value
2023-04-22T00:00:26.557Z,99309.63
2023-04-22T00:00:58.100Z,99306.28
2023-04-22T00:01:29.657Z,99302.09
2023-04-22T00:02:01.243Z,99305.28
2023-04-22T00:02:32.951Z,99310.59
2023-04-22T00:03:04.926Z,99305.28
2023-04-22T00:03:36.948Z,99310.59
2023-04-22T00:04:08.963Z,99316.94
2023-04-22T00:04:41.252Z,99310.94
2023-04-22T00:05:13.951Z,99318.59
2023-04-22T00:05:46.679Z,99313.13
2023-04-22T00:06:18.494Z,99313.84
2023-04-22T00:06:50.066Z,99312.00
2023-04-22T00:07:21.706Z,99307.34
2023-04-22T00:07:53.317Z,99300.38
2023-04-22T00:08:24.920Z,99310.16
2023-04-22T00:08:56.565Z,99305.69
2023-04-22T00:09:28.175Z,99308.38
2023-04-22T00:09:59.712Z,99304.84
2023-04-22T00:10:31.265Z,99301.22
2023-04-22T00:11:03.002Z,99302.03
2023-04-22T00:11:34.535Z,99303.88
2023-04-22T00:12:06.204Z,99305.69
2023-04-22T00:12:37.726Z,99303.03
2023-04-22T00:13:09.320Z,99301.34
2023-04-22T00:13:40.879Z,99305.69
2023-04-22T00:14:12.458Z,99301.22
2023-04-22T00:14:44.117Z,99299.53
2023-04-22T00:15:15.766Z,99297.88
2023-04-22T00:15:47.447Z,99304.03
2023-04-22T00:16:19.140Z,99298.69
2023-04-22T00:16:50.818Z,99302.19
2023-04-22T00:17:22.398Z,99296.03
2023-04-22T00:17:54.204Z,99296.03
2023-04-22T00:18:25.832Z,99294.22
2023-04-22T00:18:57.401Z,99301.34
2023-04-22T00:19:29.082Z,99291.69
2023-04-22T00:20:01.030Z,99295.22
2023-04-22T00:20:32.627Z,99298.00
2023-04-22T00:21:04.683Z,99293.53
2023-04-22T00:21:36.271Z,99294.50
2023-04-22T00:22:07.829Z,99293.66
2023-04-22T00:22:39.432Z,99295.34
2023-04-22T00:23:11.311Z,99295.34
2023-04-22T00:23:42.932Z,99287.53
2023-04-22T00:24:14.646Z,99286.66
2023-04-22T00:24:46.281Z,99284.00
2023-04-22T00:25:17.935Z,99293.66
2023-04-22T00:25:49.574Z,99288.34
2023-04-22T00:26:21.142Z,99295.34
2023-04-22T00:26:52.858Z,99291.00
2023-04-22T00:27:24.507Z,99289.19
2023-04-22T00:27:56.068Z,99291.84
2023-04-22T00:28:27.744Z,99298.00
2023-04-22T00:28:59.313Z,99292.56
2023-04-22T00:29:30.903Z,99290.88
2023-04-22T00:30:02.525Z,99297.88
2023-04-22T00:30:34.757Z,99291.69
2023-04-22T00:31:06.569Z,99294.34
2023-04-22T00:31:38.340Z,99299.66
2023-04-22T00:32:09.942Z,99297.00
2023-04-22T00:32:41.548Z,99294.34
2023-04-22T00:33:13.261Z,99297.00
2023-04-22T00:33:44.894Z,99288.06
2023-04-22T00:34:16.527Z,99288.06
2023-04-22T00:34:48.188Z,99289.88
2023-04-22T00:35:19.868Z,99292.56
2023-04-22T00:35:51.475Z,99286.38
2023-04-22T00:36:23.118Z,99285.41
2023-04-22T00:36:54.684Z,99287.38
2023-04-22T00:37:26.358Z,99289.19
2023-04-22T00:37:57.937Z,99290.88
2023-04-22T00:38:29.465Z,99290.88
2023-04-22T00:39:01.102Z,99286.38
2023-04-22T00:39:32.672Z,99289.03
2023-04-22T00:40:04.401Z,99290.03
2023-04-22T00:40:36.022Z,99287.38
2023-04-22T00:41:07.600Z,99286.38
2023-04-22T00:41:39.482Z,99281.06
2023-04-22T00:42:11.060Z,99281.91
2023-04-22T00:42:43.194Z,99286.38
2023-04-22T00:43:15.553Z,99289.03
2023-04-22T00:43:47.209Z,99290.03
2023-04-22T00:44:18.764Z,99283.72
2023-04-22T00:44:50.467Z,99286.38
2023-04-22T00:45:22.047Z,99282.75
2023-04-22T00:45:53.632Z,99286.22
2023-04-22T00:46:25.409Z,99288.88
2023-04-22T00:46:57.099Z,99291.53
2023-04-22T00:47:28.744Z,99292.41
2023-04-22T00:48:00.461Z,99288.88
2023-04-22T00:48:32.108Z,99287.91
2023-04-22T00:49:03.698Z,99288.06
2023-04-22T00:49:35.627Z,99289.88
2023-04-22T00:50:07.686Z,99291.69
2023-04-22T00:50:39.254Z,99294.34
2023-04-22T00:51:10.811Z,99294.34
2023-04-22T00:51:42.423Z,99289.03
2023-04-22T00:52:14.003Z,99283.72
2023-04-22T00:52:45.558Z,99286.38
2023-04-22T00:53:17.175Z,99281.06
2023-04-22T00:53:48.764Z,99290.88
2023-04-22T00:54:20.322Z,99286.38
2023-04-22T00:54:51.880Z,99283.72
2023-04-22T00:55:23.581Z,99288.06
2023-04-22T00:55:55.140Z,99291.69
2023-04-22T00:56:26.692Z,99286.38
2023-04-22T00:56:58.314Z,99291.69
2023-04-22T00:57:29.971Z,99288.06
2023-04-22T00:58:01.534Z,99288.06
2023-04-22T00:58:33.153Z,99289.03
2023-04-22T00:59:04.715Z,99288.06
2023-04-22T00:59:36.341Z,99296.03
2023-04-22T01:00:08.154Z,99296.03
2023-04-22T01:00:39.809Z,99290.88
2023-04-22T01:01:11.490Z,99292.56
2023-04-22T01:01:43.114Z,99287.22
2023-04-22T01:02:14.804Z,99286.38
2023-04-22T01:02:47.232Z,99286.38
2023-04-22T01:03:19.298Z,99288.06
2023-04-22T01:03:51.287Z,99279.41
2023-04-22T01:04:23.022Z,99280.22
2023-04-22T01:04:54.690Z,99282.88
2023-04-22T01:05:26.265Z,99288.22
2023-04-22T01:05:57.841Z,99287.38
2023-04-22T01:06:29.801Z,99275.72
2023-04-22T01:07:01.563Z,99284.72
2023-04-22T01:07:33.209Z,99287.38
2023-04-22T01:08:04.774Z,99282.06
2023-04-22T01:08:36.358Z,99281.06
2023-04-22T01:09:10.608Z,99282.06
2023-04-22T01:09:42.506Z,99285.53
2023-04-22T01:10:14.347Z,99286.38
2023-04-22T01:10:45.978Z,99281.06
2023-04-22T01:11:17.653Z,99285.53
2023-04-22T01:11:49.384Z,99280.22
2023-04-22T01:12:21.145Z,99281.06
2023-04-22T01:12:52.844Z,99278.41
2023-04-22T01:13:24.489Z,99280.22
2023-04-22T01:13:56.053Z,99286.38
2023-04-22T01:14:27.653Z,99285.53
2023-04-22T01:14:59.248Z,99281.06
2023-04-22T01:15:30.916Z,99282.75
2023-04-22T01:16:02.509Z,99280.06
2023-04-22T01:16:34.232Z,99277.41
2023-04-22T01:17:05.941Z,99281.06
2023-04-22T01:17:37.661Z,99289.03
2023-04-22T01:18:09.337Z,99290.72
2023-04-22T01:18:40.977Z,99288.06
2023-04-22T01:19:12.539Z,99285.41
2023-04-22T01:20:49.267Z,99282.75
2023-04-22T01:21:20.548Z,99289.75
2023-04-22T01:21:51.840Z,99283.56
2023-04-22T01:22:23.275Z,99292.41
2023-04-22T01:22:54.963Z,99289.75
2023-04-22T01:23:26.593Z,99286.06
2023-04-22T01:23:58.247Z,99278.09
2023-04-22T01:24:29.817Z,99286.06
2023-04-22T01:25:01.997Z,99283.41
2023-04-22T01:25:33.544Z,99278.97
2023-04-22T01:26:05.597Z,99279.09
2023-04-22T01:26:37.061Z,99278.25
2023-04-22T01:27:08.950Z,99284.44
2023-04-22T01:27:40.544Z,99285.41
2023-04-22T01:28:12.058Z,99282.75
2023-04-22T01:28:43.686Z,99279.09
2023-04-22T01:29:15.292Z,99285.41
2023-04-22T01:29:46.890Z,99281.06
2023-04-22T01:30:18.490Z,99275.72
2023-04-22T01:30:50.054Z,99272.25
2023-04-22T01:31:21.682Z,99279.25
2023-04-22T01:31:53.355Z,99275.59
2023-04-22T01:32:25.121Z,99279.25
2023-04-22T01:32:57.061Z,99276.59
2023-04-22T01:33:28.806Z,99281.06
2023-04-22T01:34:00.438Z,99276.59
2023-04-22T01:34:32.194Z,99276.59
2023-04-22T01:35:03.991Z,99281.91
2023-04-22T01:35:35.582Z,99273.78
2023-04-22T01:36:07.318Z,99280.06
2023-04-22T01:36:38.812Z,99279.25
2023-04-22T01:37:10.422Z,99277.41
2023-04-22T01:37:41.864Z,99281.06
2023-04-22T01:38:13.712Z,99281.06
2023-04-22T01:38:45.082Z,99279.25
2023-04-22T01:39:16.614Z,99281.75
2023-04-22T01:39:48.159Z,99283.56
2023-04-22T01:40:19.585Z,99284.44
2023-04-22T01:40:51.262Z,99282.75
2023-04-22T01:41:22.762Z,99282.75
2023-04-22T01:41:54.205Z,99282.75
2023-04-22T01:42:25.634Z,99286.38
2023-04-22T01:42:57.136Z,99284.72
2023-04-22T01:43:28.888Z,99290.03
2023-04-22T01:44:00.240Z,99294.34
2023-04-22T01:44:31.660Z,99286.38
2023-04-22T01:45:03.563Z,99286.38
2023-04-22T01:45:35.062Z,99286.22
2023-04-22T01:46:06.702Z,99292.56
2023-04-22T01:46:38.127Z,99285.41
2023-04-22T01:47:09.534Z,99288.06
2023-04-22T01:47:41.029Z,99283.56
2023-04-22T01:48:12.512Z,99279.94
2023-04-22T01:48:43.970Z,99295.06
2023-04-22T01:49:15.424Z,99290.72
2023-04-22T01:49:46.859Z,99287.09
2023-04-22T01:50:18.426Z,99288.75
2023-04-22T01:50:49.893Z,99292.41
2023-04-22T01:51:21.380Z,99293.38
2023-04-22T01:51:52.853Z,99296.88
2023-04-22T01:52:24.326Z,99293.22
2023-04-22T01:52:56.060Z,99294.06
2023-04-22T01:53:27.577Z,99289.75
2023-04-22T01:53:59.004Z,99285.41
2023-04-22T01:54:30.459Z,99288.06
2023-04-22T01:55:01.922Z,99293.38
2023-04-22T01:55:33.351Z,99289.88
2023-04-22T01:56:04.905Z,99286.38
2023-04-22T01:56:36.780Z,99291.53
2023-04-22T01:57:09.020Z,99288.06
2023-04-22T01:57:40.422Z,99287.09
2023-04-22T01:58:11.874Z,99289.75
2023-04-22T01:58:43.471Z,99291.41
2023-04-22T01:59:14.888Z,99284.44
2023-04-22T01:59:46.336Z,99285.41
2023-04-22T02:00:18.009Z,99290.56
2023-04-22T02:00:49.452Z,99289.75
2023-04-22T02:01:20.970Z,99292.56
2023-04-22T02:01:52.642Z,99288.06
2023-04-22T02:02:24.217Z,99295.06
2023-04-22T02:02:55.707Z,99295.06
2023-04-22T02:03:27.229Z,99292.25
2023-04-22T02:03:58.748Z,99292.25
2023-04-22T02:04:30.242Z,99298.41
2023-04-22T02:05:01.674Z,99286.06
2023-04-22T02:05:33.223Z,99290.44
2023-04-22T02:06:04.717Z,99293.09
2023-04-22T02:06:36.247Z,99289.59
2023-04-22T02:07:07.664Z,99294.75
2023-04-22T02:07:39.177Z,99295.59
2023-04-22T02:08:10.616Z,99290.28
2023-04-22T02:08:42.084Z,99301.91
2023-04-22T02:09:13.441Z,99299.22
2023-04-22T02:09:44.922Z,99294.75
2023-04-22T02:10:16.363Z,99294.75
2023-04-22T02:10:47.838Z,99289.59
2023-04-22T02:11:19.211Z,99293.91
2023-04-22T02:11:50.638Z,99293.75
2023-04-22T02:12:22.067Z,99307.06
2023-04-22T02:12:53.452Z,99297.41
2023-04-22T02:13:24.816Z,99294.91
2023-04-22T02:13:56.371Z,99300.25
2023-04-22T02:14:27.851Z,99302.03
2023-04-22T02:14:59.273Z,99303.72
2023-04-22T02:15:30.915Z,99302.91
2023-04-22T02:16:02.515Z,99302.03
2023-04-22T02:16:34.146Z,99305.69
2023-04-22T02:17:05.649Z,99297.72
2023-04-22T02:17:37.146Z,99298.56
2023-04-22T02:18:08.602Z,99299.38
2023-04-22T02:18:40.059Z,99299.38
2023-04-22T02:19:11.946Z,99302.03
2023-04-22T02:19:43.810Z,99303.88
2023-04-22T02:20:15.560Z,99302.03
2023-04-22T02:20:47.108Z,99297.72
2023-04-22T02:21:18.556Z,99298.56
2023-04-22T02:21:50.091Z,99294.22
2023-04-22T02:22:22.099Z,99294.06
2023-04-22T02:22:53.564Z,99295.75
2023-04-22T02:23:25.257Z,99295.06
2023-04-22T02:23:56.717Z,99294.22
2023-04-22T02:24:28.202Z,99302.03
2023-04-22T02:24:59.762Z,99299.38
2023-04-22T02:25:31.194Z,99286.06
2023-04-22T02:26:02.618Z,99286.94
2023-04-22T02:26:34.033Z,99296.72
2023-04-22T02:27:05.552Z,99296.72
2023-04-22T02:27:37.020Z,99298.56
2023-04-22T02:28:08.465Z,99288.06
2023-04-22T02:28:39.973Z,99286.22
2023-04-22T02:29:11.446Z,99289.59
2023-04-22T02:29:42.966Z,99290.56
2023-04-22T02:30:14.655Z,99291.41
2023-04-22T02:30:46.281Z,99285.25
2023-04-22T02:31:17.760Z,99290.56
2023-04-22T02:31:49.415Z,99291.41
2023-04-22T02:32:21.028Z,99298.56
2023-04-22T02:32:52.685Z,99294.22
2023-04-22T02:33:24.118Z,99291.53
2023-04-22T02:33:55.721Z,99292.41
2023-04-22T02:34:27.219Z,99291.41
2023-04-22T02:34:58.837Z,99296.72
2023-04-22T02:35:30.331Z,99291.41
2023-04-22T02:36:01.930Z,99294.91
2023-04-22T02:36:33.424Z,99298.41
2023-04-22T02:37:04.937Z,99295.06
2023-04-22T02:37:36.492Z,99300.25
2023-04-22T02:38:07.967Z,99298.56
2023-04-22T02:38:39.401Z,99307.34
2023-04-22T02:39:10.913Z,99293.09
2023-04-22T02:39:42.556Z,99294.06
2023-04-22T02:40:14.067Z,99291.41
2023-04-22T02:40:45.518Z,99286.06
2023-04-22T02:41:17.001Z,99286.06
2023-04-22T02:41:48.565Z,99295.75
2023-04-22T02:42:20.135Z,99289.59
2023-04-22T02:42:51.669Z,99293.09
2023-04-22T02:43:23.128Z,99293.22
2023-04-22T02:43:54.600Z,99298.41
2023-04-22T02:44:26.050Z,99290.44
2023-04-22T02:44:57.484Z,99289.59
2023-04-22T02:45:29.016Z,99287.75
2023-04-22T02:46:00.435Z,99279.78
2023-04-22T02:46:31.870Z,99290.44
2023-04-22T02:47:03.459Z,99287.75
2023-04-22T02:47:35.001Z,99291.25
2023-04-22T02:48:06.564Z,99284.09
2023-04-22T02:48:38.063Z,99282.44
2023-04-22T02:49:09.463Z,99286.75
2023-04-22T02:49:41.433Z,99283.28
2023-04-22T02:50:13.070Z,99286.75
2023-04-22T02:50:44.490Z,99286.94
2023-04-22T02:51:15.969Z,99284.28
2023-04-22T02:51:47.419Z,99283.41
2023-04-22T02:52:18.815Z,99284.44
2023-04-22T02:52:50.165Z,99280.75
2023-04-22T02:53:21.671Z,99282.44
2023-04-22T02:53:53.109Z,99286.75
2023-04-22T02:54:24.562Z,99284.97
2023-04-22T02:54:56.047Z,99281.44
2023-04-22T02:55:27.502Z,99287.75
2023-04-22T02:55:58.947Z,99286.06
2023-04-22T02:56:30.435Z,99288.59
2023-04-22T02:57:01.966Z,99287.75
2023-04-22T02:57:33.497Z,99285.09
2023-04-22T02:58:05.129Z,99287.75
2023-04-22T02:58:36.678Z,99283.28
2023-04-22T02:59:08.119Z,99286.06
2023-04-22T02:59:39.942Z,99283.28
2023-04-22T03:00:11.676Z,99279.78
2023-04-22T03:00:43.149Z,99277.94
2023-04-22T03:01:14.630Z,99280.63
2023-04-22T03:01:46.135Z,99285.09
2023-04-22T03:02:17.738Z,99280.75
2023-04-22T03:02:49.313Z,99273.78
2023-04-22T03:03:20.967Z,99280.75
2023-04-22T03:03:52.641Z,99277.13
2023-04-22T03:04:24.377Z,99283.41
2023-04-22T03:04:56.047Z,99277.28
2023-04-22T03:05:27.463Z,99279.09
2023-04-22T03:05:58.964Z,99276.44
2023-04-22T03:06:30.447Z,99276.44
2023-04-22T03:07:01.886Z,99272.09
2023-04-22T03:07:33.299Z,99272.94
2023-04-22T03:08:04.684Z,99272.09
2023-04-22T03:08:36.149Z,99275.44
2023-04-22T03:09:07.697Z,99269.28
2023-04-22T03:09:39.501Z,99263.00
2023-04-22T03:10:11.173Z,99260.47
2023-04-22T03:10:42.655Z,99268.47
2023-04-22T03:11:14.227Z,99264.13
2023-04-22T03:11:45.820Z,99262.28
2023-04-22T03:12:17.251Z,99265.94
2023-04-22T03:12:48.663Z,99264.13
2023-04-22T03:13:20.064Z,99262.28
2023-04-22T03:13:51.542Z,99266.78
2023-04-22T03:14:23.134Z,99262.28
2023-04-22T03:14:54.598Z,99261.47
2023-04-22T03:15:26.061Z,99267.59
2023-04-22T03:15:57.529Z,99268.47
2023-04-22T03:16:29.056Z,99264.13
2023-04-22T03:17:00.570Z,99268.47
2023-04-22T03:17:32.125Z,99270.13
2023-04-22T03:18:03.735Z,99264.81
2023-04-22T03:18:35.166Z,99262.13
2023-04-22T03:19:06.633Z,99268.47
2023-04-22T03:19:38.327Z,99268.47
2023-04-22T03:20:10.348Z,99275.44
2023-04-22T03:20:41.746Z,99268.47
2023-04-22T03:21:13.219Z,99269.28
2023-04-22T03:21:44.611Z,99270.25
2023-04-22T03:22:16.140Z,99265.81
2023-04-22T03:22:47.598Z,99272.78
2023-04-22T03:23:18.987Z,99268.47
2023-04-22T03:23:50.449Z,99263.97
2023-04-22T03:24:21.900Z,99268.47
2023-04-22T03:24:53.342Z,99271.13
2023-04-22T03:25:24.839Z,99270.25
2023-04-22T03:25:56.251Z,99268.47
2023-04-22T03:26:27.674Z,99266.78
2023-04-22T03:26:59.133Z,99273.78
2023-04-22T03:27:30.668Z,99271.13
2023-04-22T03:28:02.390Z,99270.25
2023-04-22T03:28:33.918Z,99270.13
2023-04-22T03:29:05.422Z,99263.97
2023-04-22T03:29:36.846Z,99258.66
2023-04-22T03:30:08.495Z,99257.81
2023-04-22T03:30:40.055Z,99259.78
2023-04-22T03:31:11.484Z,99261.47
2023-04-22T03:31:42.990Z,99258.81
2023-04-22T03:32:14.776Z,99259.78
2023-04-22T03:32:46.517Z,99262.28
2023-04-22T03:33:18.167Z,99250.81
2023-04-22T03:33:49.617Z,99249.13
2023-04-22T03:34:21.034Z,99245.50
2023-04-22T03:34:52.479Z,99248.16
2023-04-22T03:35:23.946Z,99246.31
2023-04-22T03:35:55.359Z,99242.84
2023-04-22T03:36:27.300Z,99249.84
2023-04-22T03:36:58.773Z,99246.31
2023-04-22T03:37:30.219Z,99242.69
2023-04-22T03:38:01.721Z,99243.53
2023-04-22T03:38:33.243Z,99239.22
2023-04-22T03:39:04.755Z,99246.19
2023-04-22T03:39:36.519Z,99244.53
2023-04-22T03:40:08.513Z,99238.34
2023-04-22T03:40:39.938Z,99244.53
2023-04-22T03:41:11.388Z,99246.31
2023-04-22T03:41:42.785Z,99245.50
2023-04-22T03:42:14.300Z,99239.34
2023-04-22T03:42:45.652Z,99244.66
2023-04-22T03:43:17.203Z,99243.00
2023-04-22T03:43:48.593Z,99244.53
2023-04-22T03:44:20.012Z,99247.19
2023-04-22T03:44:51.459Z,99245.50
2023-04-22T03:45:22.870Z,99245.50
2023-04-22T03:45:54.358Z,99250.00
2023-04-22T03:46:25.985Z,99245.50
2023-04-22T03:46:57.533Z,99242.00
2023-04-22T03:47:29.477Z,99244.53
2023-04-22T03:48:01.044Z,99237.53
2023-04-22T03:48:32.654Z,99243.81
2023-04-22T03:49:04.131Z,99243.00
2023-04-22T03:49:35.589Z,99238.50
2023-04-22T03:50:07.199Z,99235.84
2023-04-22T03:50:38.788Z,99232.19
2023-04-22T03:51:10.254Z,99232.19
2023-04-22T03:51:41.764Z,99234.03
2023-04-22T03:52:13.210Z,99233.19
2023-04-22T03:52:44.642Z,99227.84
2023-04-22T03:53:16.119Z,99238.50
2023-04-22T03:53:47.612Z,99231.38
2023-04-22T03:54:19.083Z,99234.03
2023-04-22T03:54:50.515Z,99235.69
2023-04-22T03:55:22.091Z,99238.50
2023-04-22T03:55:53.542Z,99234.88
2023-04-22T03:56:25.028Z,99227.72
2023-04-22T03:56:56.592Z,99232.34
2023-04-22T03:57:28.156Z,99233.19
2023-04-22T03:57:59.682Z,99234.88
2023-04-22T03:58:31.152Z,99237.66
2023-04-22T03:59:02.706Z,99233.19
2023-04-22T03:59:34.130Z,99233.19
2023-04-22T04:00:05.930Z,99226.19
2023-04-22T04:00:37.489Z,99235.84
2023-04-22T04:01:08.997Z,99229.53
2023-04-22T04:01:40.513Z,99230.53
2023-04-22T04:02:12.060Z,99234.88
2023-04-22T04:02:43.772Z,99221.56
2023-04-22T04:03:15.635Z,99224.22
2023-04-22T04:03:47.528Z,99234.88
2023-04-22T04:04:19.435Z,99228.72
2023-04-22T04:04:51.698Z,99229.53
2023-04-22T04:05:23.582Z,99226.88
2023-04-22T04:05:55.469Z,99227.72
2023-04-22T04:06:27.015Z,99231.38
2023-04-22T04:06:58.494Z,99229.41
2023-04-22T04:07:30.049Z,99231.91
2023-04-22T04:08:01.598Z,99229.41
2023-04-22T04:08:33.110Z,99232.88
2023-04-22T04:09:04.729Z,99224.91
2023-04-22T04:09:36.245Z,99225.75
2023-04-22T04:10:08.073Z,99224.91
2023-04-22T04:10:39.581Z,99227.56
2023-04-22T04:11:10.988Z,99224.06
2023-04-22T04:11:42.435Z,99225.06
2023-04-22T04:12:13.971Z,99225.91
2023-04-22T04:12:45.556Z,99227.56
2023-04-22T04:13:17.012Z,99220.59
2023-04-22T04:13:48.548Z,99226.88
2023-04-22T04:14:19.995Z,99221.56
2023-04-22T04:14:51.381Z,99225.91
2023-04-22T04:15:22.807Z,99234.88
2023-04-22T04:15:54.281Z,99232.19
2023-04-22T04:16:25.938Z,99223.41
2023-04-22T04:16:57.415Z,99224.22
2023-04-22T04:17:29.116Z,99229.53
2023-04-22T04:18:00.669Z,99220.75
2023-04-22T04:18:32.233Z,99220.75
2023-04-22T04:19:03.828Z,99218.06
2023-04-22T04:19:36.089Z,99222.53
2023-04-22T04:20:07.619Z,99224.22
2023-04-22T04:20:39.107Z,99218.91
2023-04-22T04:21:10.602Z,99217.94
2023-04-22T04:21:42.034Z,99214.41
2023-04-22T04:22:13.500Z,99220.75
2023-04-22T04:22:44.936Z,99216.38
2023-04-22T04:23:16.871Z,99215.41
2023-04-22T04:23:48.334Z,99215.41
2023-04-22T04:24:19.799Z,99211.91
2023-04-22T04:24:51.227Z,99219.88
2023-04-22T04:25:22.804Z,99214.56
2023-04-22T04:25:54.367Z,99211.91
2023-04-22T04:26:25.743Z,99220.75
2023-04-22T04:26:57.128Z,99206.56
2023-04-22T04:27:28.507Z,99217.22
2023-04-22T04:28:00.001Z,99214.56
2023-04-22T04:28:31.431Z,99217.22
2023-04-22T04:29:02.860Z,99219.88
2023-04-22T04:29:34.762Z,99212.75
2023-04-22T04:30:06.616Z,99205.59
2023-04-22T04:30:38.087Z,99214.56
2023-04-22T04:31:09.594Z,99214.56
2023-04-22T04:31:41.363Z,99213.59
2023-04-22T04:32:12.871Z,99215.41
2023-04-22T04:32:44.307Z,99214.56
2023-04-22T04:33:15.742Z,99215.41
2023-04-22T04:33:47.159Z,99206.56
2023-04-22T04:34:18.613Z,99218.06
2023-04-22T04:34:50.063Z,99209.25
2023-04-22T04:35:21.434Z,99211.91
2023-04-22T04:35:52.820Z,99208.25
2023-04-22T04:36:24.360Z,99215.41
2023-04-22T04:36:55.768Z,99207.44
2023-04-22T04:37:27.199Z,99211.91
2023-04-22T04:37:58.680Z,99211.06
2023-04-22T04:38:30.084Z,99200.44
2023-04-22T04:39:01.504Z,99203.91
2023-04-22T04:39:32.961Z,99207.44
2023-04-22T04:40:04.781Z,99209.09
2023-04-22T04:40:36.266Z,99209.25
2023-04-22T04:41:07.706Z,99206.56
2023-04-22T04:41:39.184Z,99209.94
2023-04-22T04:42:10.678Z,99209.94
2023-04-22T04:42:42.182Z,99209.25
2023-04-22T04:43:13.659Z,99211.91
2023-04-22T04:43:45.132Z,99201.25
2023-04-22T04:44:16.576Z,99209.25
2023-04-22T04:44:48.128Z,99204.78
2023-04-22T04:45:19.824Z,99206.56
2023-04-22T04:45:51.801Z,99204.78
2023-04-22T04:46:23.405Z,99201.25
2023-04-22T04:46:55.169Z,99200.28
2023-04-22T04:47:26.685Z,99199.31
2023-04-22T04:47:58.265Z,99199.31
2023-04-22T04:48:29.802Z,99196.66
2023-04-22T04:49:02.253Z,99194.97
2023-04-22T04:49:33.649Z,99195.94
2023-04-22T04:50:05.323Z,99194.00
2023-04-22T04:50:36.755Z,99194.00
2023-04-22T04:51:08.362Z,99188.66
2023-04-22T04:51:39.739Z,99192.16
2023-04-22T04:52:11.135Z,99191.34
2023-04-22T04:52:42.616Z,99191.34
2023-04-22T04:53:14.033Z,99192.31
2023-04-22T04:53:45.557Z,99191.34
2023-04-22T04:54:16.994Z,99187.97
2023-04-22T04:54:48.335Z,99187.97
2023-04-22T04:55:19.745Z,99190.47
2023-04-22T04:55:51.217Z,99189.50
2023-04-22T04:56:22.751Z,99194.00
2023-04-22T04:56:54.175Z,99186.00
2023-04-22T04:57:25.620Z,99184.31
2023-04-22T04:57:57.078Z,99186.00
2023-04-22T04:58:28.541Z,99190.47
2023-04-22T04:59:00.018Z,99192.16
2023-04-22T04:59:31.399Z,99194.81
2023-04-22T05:00:02.975Z,99190.31
2023-04-22T05:00:34.430Z,99193.13
2023-04-22T05:01:05.890Z,99192.31
2023-04-22T05:01:37.390Z,99191.34
2023-04-22T05:02:09.181Z,99196.66
2023-04-22T05:02:41.113Z,99194.81
2023-04-22T05:03:12.850Z,99194.97
2023-04-22T05:03:44.574Z,99191.47
2023-04-22T05:04:16.477Z,99193.13
2023-04-22T05:04:48.390Z,99192.31
2023-04-22T05:05:19.996Z,99192.31
2023-04-22T05:05:51.412Z,99192.31
2023-04-22T05:06:22.909Z,99192.31
2023-04-22T05:06:54.368Z,99191.47
2023-04-22T05:07:25.839Z,99194.97
2023-04-22T05:07:57.334Z,99194.97
2023-04-22T05:08:28.733Z,99194.00
2023-04-22T05:09:00.173Z,99191.47
2023-04-22T05:09:31.669Z,99188.81
2023-04-22T05:10:03.456Z,99199.47
2023-04-22T05:10:34.940Z,99201.25
2023-04-22T05:11:06.415Z,99198.59
2023-04-22T05:11:37.837Z,99194.28
2023-04-22T05:12:09.272Z,99191.47
2023-04-22T05:12:40.782Z,99195.94
2023-04-22T05:13:12.209Z,99190.63
2023-04-22T05:13:43.970Z,99195.94
2023-04-22T05:14:15.443Z,99200.28
2023-04-22T05:14:46.965Z,99197.63
2023-04-22T05:15:18.444Z,99201.13
2023-04-22T05:15:49.890Z,99198.31
2023-04-22T05:16:21.309Z,99194.81
2023-04-22T05:16:52.856Z,99190.47
2023-04-22T05:17:24.343Z,99201.97
2023-04-22T05:17:55.799Z,99191.34
2023-04-22T05:18:27.262Z,99200.97
2023-04-22T05:18:58.702Z,99204.63
2023-04-22T05:19:30.105Z,99196.66
2023-04-22T05:20:01.579Z,99196.66
2023-04-22T05:20:35.859Z,99199.31
2023-04-22T05:21:07.702Z,99207.28
2023-04-22T05:21:39.117Z,99204.63
2023-04-22T05:22:10.601Z,99203.78
2023-04-22T05:22:42.081Z,99208.13
2023-04-22T05:23:13.539Z,99212.59
2023-04-22T05:23:44.968Z,99206.28
2023-04-22T05:24:16.437Z,99206.13
2023-04-22T05:24:47.853Z,99201.81
2023-04-22T05:25:19.332Z,99212.47
2023-04-22T05:25:52.841Z,99206.28
2023-04-22T05:26:24.905Z,99206.28
2023-04-22T05:26:56.435Z,99208.94
2023-04-22T05:27:27.779Z,99207.13
2023-04-22T05:27:59.213Z,99208.13
2023-04-22T05:28:30.640Z,99208.94
2023-04-22T05:29:02.128Z,99204.47
2023-04-22T05:29:33.565Z,99206.28
2023-04-22T05:30:05.363Z,99206.28
2023-04-22T05:30:36.927Z,99205.47
2023-04-22T05:31:08.325Z,99205.47
2023-04-22T05:31:39.726Z,99208.94
2023-04-22T05:32:11.158Z,99209.09
2023-04-22T05:32:42.809Z,99208.25
2023-04-22T05:33:14.504Z,99200.28
2023-04-22T05:33:45.922Z,99201.97
2023-04-22T05:34:17.433Z,99205.47
2023-04-22T05:34:48.940Z,99199.31
2023-04-22T05:35:20.357Z,99196.66
2023-04-22T05:35:52.387Z,99199.31
2023-04-22T05:36:23.977Z,99200.97
2023-04-22T05:36:55.376Z,99198.16
2023-04-22T05:37:26.818Z,99201.63
2023-04-22T05:37:58.277Z,99202.66
2023-04-22T05:38:29.719Z,99197.31
2023-04-22T05:39:01.180Z,99198.97
2023-04-22T05:39:32.673Z,99198.97
2023-04-22T05:40:04.350Z,99200.00
2023-04-22T05:40:35.825Z,99207.97
2023-04-22T05:41:07.336Z,99202.66
2023-04-22T05:41:38.854Z,99205.31
2023-04-22T05:42:10.561Z,99201.63
2023-04-22T05:42:42.017Z,99204.31
2023-04-22T05:43:13.471Z,99206.13
2023-04-22T05:43:44.920Z,99200.97
2023-04-22T05:44:16.445Z,99204.47
2023-04-22T05:44:47.949Z,99200.97
2023-04-22T05:45:19.397Z,99203.63
2023-04-22T05:45:50.958Z,99196.50
2023-04-22T05:46:22.788Z,99200.97
2023-04-22T05:46:54.306Z,99207.13
2023-04-22T05:47:25.975Z,99199.31
2023-04-22T05:47:57.665Z,99200.13
2023-04-22T05:48:29.259Z,99200.13
2023-04-22T05:49:00.815Z,99198.31
2023-04-22T05:49:32.319Z,99195.66
2023-04-22T05:50:03.882Z,99198.31
2023-04-22T05:50:35.299Z,99194.66
2023-04-22T05:51:06.829Z,99186.69
2023-04-22T05:51:38.422Z,99187.50
2023-04-22T05:52:09.932Z,99196.31
2023-04-22T05:52:41.283Z,99196.31
2023-04-22T05:53:12.712Z,99191.00
2023-04-22T05:53:44.186Z,99189.34
2023-04-22T05:54:15.712Z,99194.66
2023-04-22T05:54:47.224Z,99192.84
2023-04-22T05:55:18.788Z,99199.84
2023-04-22T05:55:50.299Z,99195.66
2023-04-22T05:56:21.728Z,99202.66
2023-04-22T05:56:53.241Z,99197.31
2023-04-22T05:57:24.863Z,99190.31
2023-04-22T05:57:56.330Z,99197.31
2023-04-22T05:58:27.761Z,99191.19
2023-04-22T05:58:59.287Z,99200.13
2023-04-22T05:59:30.657Z,99196.50
2023-04-22T06:00:02.622Z,99190.31
2023-04-22T06:00:34.105Z,99194.66
2023-04-22T06:01:05.626Z,99197.31
2023-04-22T06:01:37.097Z,99188.53
2023-04-22T06:02:08.758Z,99196.50
2023-04-22T06:02:40.559Z,99201.81
2023-04-22T06:03:12.286Z,99200.00
2023-04-22T06:03:44.023Z,99194.66
2023-04-22T06:04:15.905Z,99197.31
2023-04-22T06:04:47.756Z,99194.66
2023-04-22T06:05:19.653Z,99193.66
2023-04-22T06:05:51.338Z,99189.34
2023-04-22T06:06:22.756Z,99197.31
2023-04-22T06:06:54.159Z,99197.31
2023-04-22T06:07:25.671Z,99197.31
2023-04-22T06:07:57.138Z,99196.50
2023-04-22T06:08:29.831Z,99198.31
2023-04-22T06:09:01.436Z,99200.00
2023-04-22T06:09:32.883Z,99200.00
2023-04-22T06:10:05.360Z,99192.00
2023-04-22T06:10:38.930Z,99186.69
2023-04-22T06:11:10.368Z,99189.34
2023-04-22T06:11:41.769Z,99192.84
2023-04-22T06:12:13.282Z,99188.53